createdAt,value
2019-01-13T00:01:24.591Z,5.30
2019-01-13T00:03:52.897Z,5.87
2019-01-13T00:06:20.769Z,5.60
2019-01-13T00:08:48.730Z,5.20
2019-01-13T00:11:16.378Z,6.07
2019-01-13T00:13:44.017Z,5.80
2019-01-13T00:16:11.708Z,5.87
2019-01-13T00:18:39.466Z,5.97
2019-01-13T00:21:07.049Z,6.07
2019-01-13T00:23:34.696Z,6.30
2019-01-13T00:26:02.266Z,6.67
2019-01-13T00:28:29.868Z,5.63
2019-01-13T00:30:57.829Z,6.17
2019-01-13T00:33:25.444Z,6.53
2019-01-13T00:35:56.053Z,6.20
2019-01-13T00:38:29.039Z,6.40
2019-01-13T00:40:56.673Z,5.83
2019-01-13T00:43:24.389Z,6.03
2019-01-13T00:45:52.584Z,5.50
2019-01-13T00:48:20.406Z,5.90
2019-01-13T00:50:48.173Z,6.00
2019-01-13T00:53:15.837Z,5.47
2019-01-13T00:55:43.447Z,5.47
2019-01-13T00:58:11.060Z,5.70
2019-01-13T01:00:38.728Z,5.97
2019-01-13T01:03:06.403Z,6.07
2019-01-13T01:05:33.976Z,5.70
2019-01-13T01:08:01.627Z,6.10
2019-01-13T01:10:29.445Z,5.43
2019-01-13T01:13:01.798Z,5.93
2019-01-13T01:15:32.715Z,6.20
2019-01-13T01:18:02.995Z,5.27
2019-01-13T01:20:30.751Z,5.13
2019-01-13T01:22:58.548Z,5.83
2019-01-13T01:25:26.145Z,5.87
2019-01-13T01:27:53.861Z,5.50
2019-01-13T01:30:21.533Z,6.10
2019-01-13T01:32:49.429Z,5.20
2019-01-13T01:35:17.259Z,6.00
2019-01-13T01:37:45.533Z,5.53
2019-01-13T01:40:20.410Z,5.07
2019-01-13T01:42:48.132Z,5.10
2019-01-13T01:45:17.792Z,5.10
2019-01-13T01:47:45.444Z,5.53
2019-01-13T01:50:13.740Z,5.37
2019-01-13T01:52:41.331Z,4.77
2019-01-13T01:55:11.873Z,5.60
2019-01-13T01:57:39.783Z,6.33
2019-01-13T02:00:11.870Z,6.63
2019-01-13T02:02:39.521Z,4.77
2019-01-13T02:05:07.754Z,4.97
2019-01-13T02:07:35.526Z,4.07
2019-01-13T02:10:06.197Z,4.90
2019-01-13T02:12:33.833Z,4.50
2019-01-13T02:15:01.441Z,3.83
2019-01-13T02:17:29.071Z,4.30
2019-01-13T02:19:56.851Z,5.10
2019-01-13T02:22:24.565Z,4.70
2019-01-13T02:24:52.250Z,5.13
2019-01-13T02:27:20.457Z,4.50
2019-01-13T02:29:51.224Z,4.47
2019-01-13T02:32:18.971Z,4.80
2019-01-13T02:34:46.683Z,4.70
2019-01-13T02:37:17.138Z,4.67
2019-01-13T02:39:45.188Z,4.50
2019-01-13T02:42:12.868Z,4.83
2019-01-13T02:44:40.423Z,4.60
2019-01-13T02:47:14.252Z,4.53
2019-01-13T02:49:42.146Z,4.63
2019-01-13T02:52:09.777Z,3.93
2019-01-13T02:54:37.641Z,4.70
2019-01-13T02:57:05.990Z,3.90
2019-01-13T02:59:33.809Z,4.10
2019-01-13T03:02:01.578Z,3.83
2019-01-13T03:04:31.430Z,3.73
2019-01-13T03:07:00.097Z,4.10
2019-01-13T03:09:27.823Z,3.70
2019-01-13T03:11:55.769Z,3.73
2019-01-13T03:14:23.350Z,3.90
2019-01-13T03:16:51.086Z,4.00
2019-01-13T03:19:18.687Z,4.10
2019-01-13T03:21:47.714Z,3.90
2019-01-13T03:24:15.425Z,3.57
2019-01-13T03:26:43.006Z,3.60
2019-01-13T03:29:10.585Z,3.63
2019-01-13T03:31:38.374Z,3.83
2019-01-13T03:34:05.987Z,3.70
2019-01-13T03:36:33.627Z,3.80
2019-01-13T03:39:01.451Z,3.60
2019-01-13T03:41:29.324Z,3.13
2019-01-13T03:43:57.110Z,3.47
2019-01-13T03:46:25.156Z,3.07
2019-01-13T03:48:52.733Z,3.70
2019-01-13T03:51:20.347Z,3.60
2019-01-13T03:53:48.172Z,3.30
2019-01-13T03:56:15.733Z,3.40
2019-01-13T03:58:43.308Z,3.27
2019-01-13T04:01:18.389Z,2.70
2019-01-13T04:03:40.520Z,3.43
2019-01-13T04:06:08.042Z,3.47
2019-01-13T04:08:35.644Z,3.40
2019-01-13T04:11:03.270Z,3.40
2019-01-13T04:13:30.835Z,4.00
2019-01-13T04:15:59.710Z,3.93
2019-01-13T04:18:27.385Z,4.00
2019-01-13T04:20:54.971Z,3.87
2019-01-13T04:23:22.765Z,3.97
2019-01-13T04:25:51.437Z,3.83
2019-01-13T04:28:19.005Z,4.13
2019-01-13T04:30:46.665Z,3.77
2019-01-13T04:33:14.263Z,4.27
2019-01-13T04:35:41.859Z,4.23
2019-01-13T04:38:12.264Z,4.20
2019-01-13T04:40:39.909Z,4.43
2019-01-13T04:43:07.548Z,4.70
2019-01-13T04:45:35.458Z,4.70
2019-01-13T04:48:03.002Z,4.80
2019-01-13T04:50:30.680Z,4.60
2019-01-13T04:52:58.808Z,4.87
2019-01-13T04:55:28.256Z,4.73
2019-01-13T04:57:55.905Z,5.50
2019-01-13T05:00:23.828Z,5.43
2019-01-13T05:02:51.514Z,5.23
2019-01-13T05:05:19.381Z,5.57
2019-01-13T05:07:48.182Z,5.80
2019-01-13T05:10:17.434Z,6.47
2019-01-13T05:12:45.388Z,6.93
2019-01-13T05:15:16.441Z,6.33
2019-01-13T05:17:44.309Z,6.20
2019-01-13T05:20:13.939Z,6.33
2019-01-13T05:22:45.002Z,6.70
2019-01-13T05:25:13.933Z,7.47
2019-01-13T05:27:41.497Z,7.13
2019-01-13T05:30:12.475Z,8.43
2019-01-13T05:32:42.128Z,7.47
2019-01-13T05:35:09.746Z,8.70
2019-01-13T05:37:37.660Z,8.10
2019-01-13T05:40:06.472Z,8.60
2019-01-13T05:42:34.234Z,7.90
2019-01-13T05:45:01.884Z,8.20
2019-01-13T05:47:29.547Z,7.80
2019-01-13T05:49:57.200Z,7.93
2019-01-13T05:52:24.875Z,8.03
2019-01-13T05:54:52.446Z,7.57
2019-01-13T05:57:20.020Z,8.27
2019-01-13T05:59:49.034Z,8.43
2019-01-13T06:02:16.781Z,8.07
2019-01-13T06:04:44.470Z,7.50
2019-01-13T06:07:12.449Z,8.17
2019-01-13T06:09:40.038Z,8.43
2019-01-13T06:12:07.606Z,8.40
2019-01-13T06:14:35.573Z,9.40
2019-01-13T06:17:03.188Z,9.10
2019-01-13T06:19:30.811Z,8.50
2019-01-13T06:21:58.738Z,9.27
2019-01-13T06:24:28.900Z,9.53
2019-01-13T06:26:56.518Z,9.27
2019-01-13T06:29:24.433Z,8.80
2019-01-13T06:31:56.319Z,9.57
2019-01-13T06:34:21.499Z,9.67
2019-01-13T06:36:49.218Z,9.90
2019-01-13T06:39:18.093Z,9.13
2019-01-13T06:41:45.716Z,9.50
2019-01-13T06:44:13.395Z,8.80
2019-01-13T06:46:41.164Z,9.00
2019-01-13T06:49:10.939Z,9.30
2019-01-13T06:51:38.625Z,8.73
2019-01-13T06:54:06.333Z,7.73
2019-01-13T06:56:33.948Z,7.80
2019-01-13T06:59:01.754Z,7.57
2019-01-13T07:01:29.577Z,8.03
2019-01-13T07:03:57.208Z,8.70
2019-01-13T07:06:24.975Z,7.47
2019-01-13T07:08:54.445Z,7.67
2019-01-13T07:11:22.017Z,6.07
2019-01-13T07:13:51.416Z,6.50
2019-01-13T07:16:20.411Z,5.87
2019-01-13T07:18:48.107Z,7.03
2019-01-13T07:21:16.061Z,6.90
2019-01-13T07:23:43.739Z,6.20
2019-01-13T07:26:11.415Z,6.23
2019-01-13T07:28:39.211Z,6.80
2019-01-13T07:31:06.858Z,6.20
2019-01-13T07:33:38.514Z,6.33
2019-01-13T07:36:07.609Z,6.47
2019-01-13T07:38:35.276Z,4.17
2019-01-13T07:41:04.088Z,5.83
2019-01-13T07:43:31.987Z,5.67
2019-01-13T07:47:04.950Z,5.87
2019-01-13T07:49:32.825Z,5.23
2019-01-13T07:52:00.426Z,5.90
2019-01-13T07:54:31.404Z,5.23
2019-01-13T07:56:59.224Z,5.17
2019-01-13T07:59:26.897Z,4.80
2019-01-13T08:01:54.766Z,5.07
2019-01-13T08:04:22.413Z,4.37
2019-01-13T08:06:52.907Z,3.70
2019-01-13T08:09:21.656Z,3.60
2019-01-13T08:11:49.712Z,4.00
2019-01-13T08:14:17.250Z,3.80
2019-01-13T08:16:49.960Z,3.10
2019-01-13T08:19:20.616Z,3.10
2019-01-13T08:21:48.308Z,3.10
2019-01-13T08:24:18.615Z,3.03
2019-01-13T08:26:46.811Z,3.13
2019-01-13T08:29:15.683Z,3.53
2019-01-13T08:31:44.353Z,3.50
2019-01-13T08:34:12.191Z,3.43
2019-01-13T08:36:39.870Z,3.23
2019-01-13T08:39:07.787Z,3.23
2019-01-13T08:41:35.692Z,3.43
2019-01-13T08:44:03.372Z,3.30
2019-01-13T08:46:32.101Z,3.20
2019-01-13T08:49:00.074Z,2.70
2019-01-13T08:51:27.807Z,2.73
2019-01-13T08:53:55.454Z,2.73
2019-01-13T08:56:23.164Z,2.33
2019-01-13T08:58:50.945Z,2.50
2019-01-13T09:01:18.583Z,2.60
2019-01-13T09:03:49.430Z,2.40
2019-01-13T09:06:18.869Z,2.10
2019-01-13T09:08:46.613Z,2.03
2019-01-13T09:11:19.783Z,1.87
2019-01-13T09:13:47.398Z,1.80
2019-01-13T09:16:15.258Z,1.87
2019-01-13T09:18:43.158Z,1.60
2019-01-13T09:21:12.806Z,1.80
2019-01-13T09:23:40.652Z,1.30
2019-01-13T09:26:08.289Z,1.40
2019-01-13T09:28:37.134Z,1.47
2019-01-13T09:31:04.752Z,2.20
2019-01-13T09:33:32.769Z,1.43
2019-01-13T09:36:00.328Z,1.60
2019-01-13T09:38:29.926Z,1.50
2019-01-13T09:40:57.905Z,1.70
2019-01-13T09:43:25.738Z,1.50
2019-01-13T09:45:55.371Z,1.63
2019-01-13T09:48:23.179Z,1.40
2019-01-13T09:50:50.784Z,1.27
2019-01-13T09:53:19.086Z,1.50
2019-01-13T09:55:46.736Z,1.50
2019-01-13T09:58:14.368Z,0.97
2019-01-13T10:00:45.201Z,1.30
2019-01-13T10:03:14.836Z,1.20
2019-01-13T10:05:42.627Z,1.50
2019-01-13T10:08:10.538Z,1.10
2019-01-13T10:10:38.863Z,1.60
2019-01-13T10:13:06.635Z,1.40
2019-01-13T10:15:34.406Z,1.30
2019-01-13T10:18:03.609Z,1.20
2019-01-13T10:20:31.331Z,1.27
2019-01-13T10:23:00.366Z,1.27
2019-01-13T10:25:32.049Z,1.20
2019-01-13T10:28:00.165Z,1.00
2019-01-13T10:30:29.751Z,1.00
2019-01-13T10:32:58.166Z,1.17
2019-01-13T10:35:26.205Z,1.30
2019-01-13T10:37:56.573Z,1.40
2019-01-13T10:40:29.139Z,1.17
2019-01-13T10:42:57.002Z,1.20
2019-01-13T10:45:24.779Z,1.40
2019-01-13T10:47:55.057Z,1.43
2019-01-13T10:50:24.833Z,1.00
2019-01-13T10:52:53.927Z,1.27
2019-01-13T10:55:21.966Z,1.30
2019-01-13T10:57:49.858Z,1.27
2019-01-13T11:00:20.118Z,1.40
2019-01-13T11:02:47.841Z,1.40
2019-01-13T11:05:15.453Z,1.40
2019-01-13T11:07:46.440Z,1.10
2019-01-13T11:10:14.456Z,1.37
2019-01-13T11:12:50.372Z,1.20
2019-01-13T11:15:21.703Z,1.20
2019-01-13T11:17:52.870Z,1.20
2019-01-13T11:20:23.260Z,1.30
2019-01-13T11:22:51.192Z,1.07
2019-01-13T11:25:18.911Z,1.10
2019-01-13T11:27:46.828Z,1.50
2019-01-13T11:30:16.808Z,1.10
2019-01-13T11:32:45.476Z,1.13
2019-01-13T11:35:16.900Z,1.37
2019-01-13T11:37:44.686Z,1.20
2019-01-13T11:40:15.475Z,1.20
2019-01-13T11:42:43.489Z,1.20
2019-01-13T11:45:11.782Z,1.20
2019-01-13T11:47:39.435Z,1.20
2019-01-13T11:50:10.432Z,1.13
2019-01-13T11:52:38.230Z,1.10
2019-01-13T11:55:07.528Z,1.40
2019-01-13T11:57:35.432Z,1.73
2019-01-13T12:00:04.649Z,2.03
2019-01-13T12:02:32.951Z,1.53
2019-01-13T12:05:01.040Z,1.40
2019-01-13T12:07:28.987Z,1.50
2019-01-13T12:09:56.931Z,1.70
2019-01-13T12:12:24.691Z,1.40
2019-01-13T12:14:52.598Z,1.40
2019-01-13T12:17:20.232Z,1.60
2019-01-13T12:19:48.167Z,1.60
2019-01-13T12:22:15.806Z,1.67
2019-01-13T12:24:43.397Z,1.40
2019-01-13T12:27:11.482Z,1.50
2019-01-13T12:29:39.127Z,1.60
2019-01-13T12:32:06.730Z,1.90
2019-01-13T12:34:37.819Z,1.80
2019-01-13T12:37:05.414Z,2.10
2019-01-13T12:39:33.010Z,2.00
2019-01-13T12:42:03.594Z,1.90
2019-01-13T12:44:31.352Z,1.90
2019-01-13T12:46:58.941Z,2.30
2019-01-13T12:49:26.650Z,1.73
2019-01-13T12:51:59.203Z,1.60
2019-01-13T12:54:26.810Z,1.40
2019-01-13T12:56:55.696Z,1.60
2019-01-13T12:59:23.657Z,1.63
2019-01-13T13:01:52.127Z,1.70
2019-01-13T13:04:21.117Z,1.70
2019-01-13T13:06:49.677Z,1.40
2019-01-13T13:09:20.918Z,1.50
2019-01-13T13:11:48.854Z,1.40
2019-01-13T13:14:16.790Z,1.80
2019-01-13T13:16:54.033Z,1.40
2019-01-13T13:19:21.748Z,1.60
2019-01-13T13:21:49.965Z,1.57
2019-01-13T13:24:40.157Z,1.50
2019-01-13T13:27:10.234Z,1.83
2019-01-13T13:29:38.364Z,1.50
2019-01-13T13:32:14.114Z,1.97
2019-01-13T13:34:48.025Z,1.33
2019-01-13T13:37:17.586Z,1.50
2019-01-13T13:39:45.166Z,1.40
2019-01-13T13:42:30.299Z,1.30
2019-01-13T13:45:00.216Z,1.33
2019-01-13T13:47:30.541Z,1.10
2019-01-13T13:50:00.946Z,1.10
2019-01-13T13:52:33.632Z,1.10
2019-01-13T13:55:03.456Z,1.20
2019-01-13T13:57:31.603Z,1.10
2019-01-13T13:59:59.262Z,1.10
2019-01-13T14:02:27.767Z,1.20
2019-01-13T14:04:59.354Z,1.50
2019-01-13T14:07:30.821Z,1.40
2019-01-13T14:10:06.358Z,1.40
2019-01-13T14:12:37.539Z,1.87
2019-01-13T14:15:10.605Z,1.20
2019-01-13T14:17:39.928Z,1.10
2019-01-13T14:20:10.480Z,1.30
2019-01-13T14:22:40.943Z,1.33
2019-01-13T14:25:09.099Z,1.60
2019-01-13T14:27:36.936Z,1.60
2019-01-13T14:30:18.303Z,1.40
2019-01-13T14:32:46.279Z,1.30
2019-01-13T14:35:13.964Z,1.20
2019-01-13T14:37:42.070Z,1.27
2019-01-13T14:40:15.029Z,1.13
2019-01-13T14:42:42.822Z,1.23
2019-01-13T14:45:15.886Z,1.20
2019-01-13T14:47:43.512Z,1.40
2019-01-13T14:50:17.088Z,1.40
2019-01-13T14:52:46.858Z,1.17
2019-01-13T14:55:17.400Z,1.37
2019-01-13T14:57:45.131Z,1.20
2019-01-13T15:00:16.816Z,1.77
2019-01-13T15:02:49.257Z,1.30
2019-01-13T15:05:18.371Z,1.53
2019-01-13T15:07:47.098Z,1.30
2019-01-13T15:10:16.027Z,1.47
2019-01-13T15:12:43.678Z,1.30
2019-01-13T15:15:12.392Z,1.47
2019-01-13T15:17:41.214Z,1.37
2019-01-13T15:20:12.362Z,1.60
2019-01-13T15:22:40.233Z,1.20
2019-01-13T15:25:14.000Z,1.10
2019-01-13T15:27:44.713Z,1.13
2019-01-13T15:30:17.780Z,1.20
2019-01-13T15:32:45.789Z,1.10
2019-01-13T15:35:15.261Z,1.00
2019-01-13T15:37:42.861Z,1.10
2019-01-13T15:40:12.243Z,1.10
2019-01-13T15:42:41.511Z,1.10
2019-01-13T15:45:10.028Z,1.17
2019-01-13T15:47:37.673Z,0.90
2019-01-13T15:50:11.661Z,6.53
2019-01-13T15:52:41.866Z,0.90
2019-01-13T15:55:14.614Z,1.00
2019-01-13T15:57:42.328Z,0.90
2019-01-13T16:00:20.600Z,0.80
2019-01-13T16:02:48.209Z,0.90
2019-01-13T16:05:16.173Z,1.00
2019-01-13T16:07:43.897Z,1.00
2019-01-13T16:10:13.948Z,0.80
2019-01-13T16:12:41.725Z,0.90
2019-01-13T16:15:10.640Z,0.90
2019-01-13T16:17:38.705Z,0.97
2019-01-13T16:20:19.130Z,0.90
2019-01-13T16:22:46.848Z,0.93
2019-01-13T16:25:14.480Z,0.90
2019-01-13T16:27:42.223Z,1.03
2019-01-13T16:30:17.838Z,0.90
2019-01-13T16:32:48.373Z,0.80
2019-01-13T16:35:16.361Z,0.80
2019-01-13T16:37:44.043Z,1.00
2019-01-13T16:40:16.639Z,1.00
2019-01-13T16:42:44.312Z,1.00
2019-01-13T16:45:15.325Z,0.90
2019-01-13T16:47:46.660Z,1.30
2019-01-13T16:50:41.247Z,1.20
2019-01-13T16:53:09.405Z,1.03
2019-01-13T16:55:37.085Z,1.40
2019-01-13T16:58:05.063Z,0.90
2019-01-13T17:00:32.813Z,1.30
2019-01-13T17:03:00.582Z,4.20
2019-01-13T17:05:31.938Z,1.40
2019-01-13T17:08:00.089Z,1.50
2019-01-13T17:10:27.725Z,1.17
2019-01-13T17:12:55.301Z,1.57
2019-01-13T17:15:28.562Z,2.90
2019-01-13T17:17:57.688Z,1.62
2019-01-13T17:20:32.996Z,2.10
2019-01-13T17:23:01.000Z,2.10
2019-01-13T17:25:28.683Z,1.80
2019-01-13T17:27:56.424Z,1.30
2019-01-13T17:30:32.014Z,1.37
2019-01-13T17:32:59.751Z,1.10
2019-01-13T17:35:27.637Z,1.87
2019-01-13T17:37:55.487Z,5.93
2019-01-13T17:40:23.375Z,1.30
2019-01-13T17:42:51.164Z,0.90
2019-01-13T17:45:20.368Z,1.00
2019-01-13T17:47:56.563Z,1.90
2019-01-13T17:50:27.946Z,2.43
2019-01-13T17:52:57.194Z,0.93
2019-01-13T17:55:26.420Z,1.80
2019-01-13T17:57:54.670Z,2.13
2019-01-13T18:00:39.947Z,4.37
2019-01-13T18:03:08.813Z,10.93
2019-01-13T18:05:36.450Z,2.63
2019-01-13T18:08:06.841Z,3.17
2019-01-13T18:10:35.750Z,2.07
2019-01-13T18:13:05.416Z,2.47
2019-01-13T18:15:36.560Z,7.80
2019-01-13T18:18:04.453Z,4.27
2019-01-13T18:20:33.752Z,2.90
2019-01-13T18:23:01.388Z,1.90
2019-01-13T18:25:31.945Z,2.00
2019-01-13T18:27:59.630Z,3.33
2019-01-13T18:30:31.864Z,2.60
2019-01-13T18:32:59.745Z,2.10
2019-01-13T18:35:32.302Z,2.30
2019-01-13T18:38:02.408Z,2.70
2019-01-13T18:40:31.185Z,2.00
2019-01-13T18:43:00.822Z,5.00
2019-01-13T18:45:28.932Z,5.67
2019-01-13T18:47:56.588Z,6.73
2019-01-13T18:50:28.523Z,4.33
2019-01-13T18:53:06.553Z,6.90
2019-01-13T18:56:19.249Z,2.30
2019-01-13T18:58:49.548Z,6.93
2019-01-13T19:01:20.144Z,14.77
2019-01-13T19:03:47.824Z,5.20
2019-01-13T19:06:18.394Z,2.20
2019-01-13T19:08:46.077Z,1.87
2019-01-13T19:11:25.894Z,1.60
2019-01-13T19:14:14.468Z,2.50
2019-01-13T19:17:02.998Z,2.90
2019-01-13T19:19:45.664Z,3.07
2019-01-13T19:22:16.853Z,8.10
2019-01-13T19:24:44.912Z,2.23
2019-01-13T19:27:15.153Z,4.27
2019-01-13T19:29:48.876Z,3.50
2019-01-13T19:32:19.453Z,3.80
2019-01-13T19:34:47.569Z,2.00
2019-01-13T19:37:21.248Z,3.90
2019-01-13T19:39:49.136Z,2.00
2019-01-13T19:42:23.941Z,4.20
2019-01-13T19:44:56.559Z,3.60
2019-01-13T19:47:33.926Z,2.57
2019-01-13T19:50:02.519Z,3.33
2019-01-13T19:52:52.138Z,3.50
2019-01-13T19:55:23.061Z,3.50
2019-01-13T19:57:50.778Z,1.50
2019-01-13T20:00:21.198Z,1.60
2019-01-13T20:02:51.126Z,3.03
2019-01-13T20:05:19.123Z,3.13
2019-01-13T20:07:51.801Z,2.00
2019-01-13T20:10:19.933Z,2.93
2019-01-13T20:12:47.642Z,2.50
2019-01-13T20:15:15.821Z,5.70
2019-01-13T20:17:43.791Z,12.90
2019-01-13T20:20:15.196Z,4.53
2019-01-13T20:22:45.623Z,4.80
2019-01-13T20:25:18.810Z,2.43
2019-01-13T20:27:48.735Z,1.83
2019-01-13T20:30:20.830Z,2.20
2019-01-13T20:32:52.710Z,1.77
2019-01-13T20:35:23.986Z,1.80
2019-01-13T20:37:54.190Z,2.43
2019-01-13T20:40:23.196Z,3.70
2019-01-13T20:42:55.658Z,2.10
2019-01-13T20:45:26.974Z,1.40
2019-01-13T20:48:02.264Z,13.33
2019-01-13T20:50:30.015Z,8.77
2019-01-13T20:52:57.634Z,11.37
2019-01-13T20:55:25.278Z,2.33
2019-01-13T20:57:54.250Z,13.37
2019-01-13T21:00:25.391Z,7.63
2019-01-13T21:02:55.893Z,18.37
2019-01-13T21:05:27.205Z,9.73
2019-01-13T21:07:54.949Z,7.93
2019-01-13T21:10:23.969Z,2.13
2019-01-13T21:12:53.780Z,2.47
2019-01-13T21:15:29.807Z,3.60
2019-01-13T21:17:59.523Z,1.90
2019-01-13T21:20:28.881Z,1.93
2019-01-13T21:23:01.620Z,1.80
2019-01-13T21:25:32.641Z,1.77
2019-01-13T21:28:02.334Z,1.83
2019-01-13T21:30:35.066Z,1.50
2019-01-13T21:33:03.156Z,1.77
2019-01-13T21:35:34.423Z,1.50
2019-01-13T21:38:03.890Z,1.50
2019-01-13T21:40:33.652Z,2.47
2019-01-13T21:43:01.839Z,2.07
2019-01-13T21:45:29.689Z,2.40
2019-01-13T21:47:57.392Z,2.67
2019-01-13T21:50:25.369Z,1.60
2019-01-13T21:52:54.585Z,1.80
2019-01-13T21:55:22.214Z,1.97
2019-01-13T21:57:52.682Z,1.80
2019-01-13T22:00:23.377Z,1.20
2019-01-13T22:02:51.150Z,1.50
2019-01-13T22:05:20.640Z,1.67
2019-01-13T22:07:48.766Z,1.40
2019-01-13T22:10:17.943Z,1.30
2019-01-13T22:12:48.315Z,1.30
2019-01-13T22:15:18.619Z,1.47
2019-01-13T22:17:49.294Z,1.90
2019-01-13T22:20:18.714Z,1.40
2019-01-13T22:22:46.596Z,1.50
2019-01-13T22:25:17.613Z,1.57
2019-01-13T22:27:48.524Z,1.93
2019-01-13T22:30:17.985Z,1.60
2019-01-13T22:32:45.583Z,1.47
2019-01-13T22:35:13.333Z,1.40
2019-01-13T22:37:41.208Z,1.50
2019-01-13T22:40:11.075Z,1.43
2019-01-13T22:42:38.741Z,2.10
2019-01-13T22:45:08.111Z,1.87
2019-01-13T22:47:35.750Z,1.87
2019-01-13T22:50:07.604Z,2.33
2019-01-13T22:52:35.517Z,2.20
2019-01-13T22:55:04.057Z,2.57
2019-01-13T22:57:31.691Z,2.03
2019-01-13T22:59:59.596Z,2.73
2019-01-13T23:02:27.244Z,1.93
2019-01-13T23:04:55.194Z,2.00
2019-01-13T23:07:23.028Z,2.23
2019-01-13T23:09:52.573Z,2.47
2019-01-13T23:12:20.514Z,2.20
2019-01-13T23:14:51.069Z,2.13
2019-01-13T23:17:18.723Z,1.77
2019-01-13T23:19:46.304Z,1.80
2019-01-13T23:22:14.394Z,1.90
2019-01-13T23:24:42.174Z,1.60
2019-01-13T23:27:10.203Z,1.57
2019-01-13T23:29:37.839Z,1.90
2019-01-13T23:32:05.431Z,2.00
2019-01-13T23:34:33.137Z,1.90
2019-01-13T23:37:01.404Z,1.87
2019-01-13T23:39:29.206Z,1.63
2019-01-13T23:41:56.777Z,2.00
2019-01-13T23:44:24.614Z,1.80
2019-01-13T23:46:52.259Z,1.80
2019-01-13T23:49:22.248Z,1.80
2019-01-13T23:51:49.950Z,2.23
2019-01-13T23:54:21.810Z,2.13
2019-01-13T23:56:49.418Z,2.83
2019-01-13T23:59:17.256Z,1.80
